Time;durP1;ratioP1;P1;durP2;ratioP2;P2;SDS_P1;SDS_P2;PMS_P1;PMS_P2;Temp;Humidity;BMP_temperature;BMP_pressure;BME280_temperature;BME280_humidity;BME280_pressure;Samples;Min_cycle;Max_cycle;Signal;HPM_P1;HPM_P2
2022/07/09 00:00:10;;;;;;;11.85;7.30;;;;;;;;;;4939929;29;20292;-51
2022/07/09 00:02:36;;;;;;;14.20;6.70;;;;;;;;;;4956044;29;20198;-55
2022/07/09 00:05:03;;;;;;;9.85;6.75;;;;;;;;;;4956843;29;20191;-55
2022/07/09 00:07:29;;;;;;;15.75;7.45;;;;;;;;;;4956330;29;20183;-54
2022/07/09 00:09:55;;;;;;;11.25;7.03;;;;;;;;;;4953695;29;20195;-55
2022/07/09 00:12:21;;;;;;;11.23;7.05;;;;;;;;;;4939299;29;20195;-51
2022/07/09 00:14:48;;;;;;;14.20;7.43;;;;;;;;;;4936333;29;20227;-52
2022/07/09 00:17:14;;;;;;;11.77;6.53;;;;;;;;;;4937416;29;20196;-52
2022/07/09 00:19:40;;;;;;;9.40;6.55;;;;;;;;;;4936484;29;20734;-52
2022/07/09 00:22:07;;;;;;;9.82;6.47;;;;;;;;;;4935423;29;20282;-53
2022/07/09 00:24:33;;;;;;;12.63;7.00;;;;;;;;;;4937175;29;20179;-51
2022/07/09 00:26:59;;;;;;;9.40;6.47;;;;;;;;;;4936866;29;20547;-51
2022/07/09 00:29:26;;;;;;;9.90;6.15;;;;;;;;;;4937173;29;20199;-52
2022/07/09 00:31:52;;;;;;;13.00;6.15;;;;;;;;;;4934443;29;20195;-55
2022/07/09 00:34:18;;;;;;;12.57;7.15;;;;;;;;;;4937477;29;20179;-55
2022/07/09 00:36:44;;;;;;;11.65;6.88;;;;;;;;;;4936924;29;20575;-51
2022/07/09 00:39:10;;;;;;;12.15;7.05;;;;;;;;;;4937142;29;20211;-53
2022/07/09 00:41:37;;;;;;;12.90;7.80;;;;;;;;;;4936635;29;20188;-52
2022/07/09 00:44:03;;;;;;;10.35;7.15;;;;;;;;;;4936824;29;20274;-52
2022/07/09 00:46:29;;;;;;;11.18;7.40;;;;;;;;;;4934134;29;20230;-55
2022/07/09 00:48:56;;;;;;;12.13;6.82;;;;;;;;;;4936395;29;20190;-51
2022/07/09 00:51:22;;;;;;;11.27;7.22;;;;;;;;;;4936552;29;20187;-53
2022/07/09 00:53:49;;;;;;;11.88;6.80;;;;;;;;;;4936631;29;20183;-54
2022/07/09 00:56:15;;;;;;;11.57;6.78;;;;;;;;;;4935509;29;20187;-54
2022/07/09 00:58:42;;;;;;;11.45;7.20;;;;;;;;;;4935480;29;20621;-47
2022/07/09 01:01:08;;;;;;;12.18;7.30;;;;;;;;;;4936639;29;20679;-51
2022/07/09 01:03:34;;;;;;;13.35;7.38;;;;;;;;;;4935368;29;20195;-49
2022/07/09 01:06:01;;;;;;;13.32;7.65;;;;;;;;;;4936037;29;20241;-50
2022/07/09 01:08:27;;;;;;;13.00;7.40;;;;;;;;;;4934853;29;20198;-53
2022/07/09 01:10:54;;;;;;;12.35;7.15;;;;;;;;;;4935394;29;20198;-52
2022/07/09 01:13:20;;;;;;;14.02;7.20;;;;;;;;;;4936438;29;20215;-51
2022/07/09 01:15:46;;;;;;;15.05;7.25;;;;;;;;;;4952136;29;20226;-52
2022/07/09 01:18:13;;;;;;;10.93;7.53;;;;;;;;;;4945309;29;20202;-52
2022/07/09 01:20:39;;;;;;;12.05;8.50;;;;;;;;;;4954194;29;20227;-49
2022/07/09 01:23:07;;;;;;;14.52;8.15;;;;;;;;;;4937461;29;20265;-48
2022/07/09 01:25:45;;;;;;;14.48;8.23;;;;;;;;;;4953632;29;20193;-52
2022/07/09 01:28:12;;;;;;;16.40;7.97;;;;;;;;;;4954133;29;20283;-50
2022/07/09 01:30:39;;;;;;;10.68;7.55;;;;;;;;;;4937528;29;20643;-51
2022/07/09 01:33:05;;;;;;;9.90;7.28;;;;;;;;;;4954510;29;20183;-51
2022/07/09 01:35:31;;;;;;;9.93;7.00;;;;;;;;;;4947561;29;20261;-52
2022/07/09 01:37:57;;;;;;;12.75;7.75;;;;;;;;;;4937084;29;20190;-50
2022/07/09 01:40:24;;;;;;;12.23;6.53;;;;;;;;;;4954551;29;20218;-50
2022/07/09 01:42:50;;;;;;;14.07;6.60;;;;;;;;;;4936140;29;20285;-53
2022/07/09 01:45:16;;;;;;;8.27;6.53;;;;;;;;;;4954348;29;20191;-52
2022/07/09 01:47:43;;;;;;;10.82;6.40;;;;;;;;;;4936463;29;20183;-54
2022/07/09 01:50:09;;;;;;;9.50;6.40;;;;;;;;;;4937174;29;20198;-52
2022/07/09 01:52:36;;;;;;;8.25;5.90;;;;;;;;;;4953859;29;20179;-54
2022/07/09 01:55:02;;;;;;;12.40;5.35;;;;;;;;;;4954506;29;20266;-49
2022/07/09 01:57:28;;;;;;;9.27;5.43;;;;;;;;;;4953023;29;20179;-53
2022/07/09 01:59:54;;;;;;;7.50;5.20;;;;;;;;;;4954260;29;20214;-53
2022/07/09 02:02:20;;;;;;;13.15;5.57;;;;;;;;;;4953887;29;20194;-55
2022/07/09 02:04:47;;;;;;;9.18;5.60;;;;;;;;;;4953479;29;20190;-55
2022/07/09 02:07:13;;;;;;;7.40;5.35;;;;;;;;;;4952941;29;20186;-56
2022/07/09 02:09:40;;;;;;;8.77;5.13;;;;;;;;;;4954058;29;20210;-54
2022/07/09 02:12:06;;;;;;;9.73;5.35;;;;;;;;;;4946806;29;20234;-55
2022/07/09 02:14:32;;;;;;;10.67;5.43;;;;;;;;;;4914347;29;1127199;-54
2022/07/09 02:16:59;;;;;;;9.63;5.13;;;;;;;;;;4939065;29;20442;-52
2022/07/09 02:19:25;;;;;;;11.55;5.25;;;;;;;;;;4957365;29;20285;-53
2022/07/09 02:21:51;;;;;;;8.73;4.68;;;;;;;;;;4941828;29;20249;-53
2022/07/09 02:24:17;;;;;;;7.28;4.70;;;;;;;;;;4937519;29;20281;-55
2022/07/09 02:26:43;;;;;;;7.38;4.40;;;;;;;;;;4941379;29;20170;-55
2022/07/09 02:29:10;;;;;;;7.47;5.00;;;;;;;;;;4958636;29;20187;-55
2022/07/09 02:31:36;;;;;;;10.15;4.30;;;;;;;;;;4958430;29;20189;-53
2022/07/09 02:34:02;;;;;;;7.95;4.72;;;;;;;;;;4957014;29;20194;-53
2022/07/09 02:36:28;;;;;;;8.68;4.82;;;;;;;;;;4925574;29;20195;-53
2022/07/09 02:38:54;;;;;;;8.95;5.30;;;;;;;;;;4958081;29;20261;-55
2022/07/09 02:41:20;;;;;;;7.78;4.80;;;;;;;;;;4942885;29;20641;-54
2022/07/09 02:43:46;;;;;;;7.10;4.47;;;;;;;;;;4957593;29;20187;-57
2022/07/09 02:46:13;;;;;;;9.18;5.43;;;;;;;;;;4957731;29;20205;-53
2022/07/09 02:48:39;;;;;;;6.90;4.82;;;;;;;;;;4940187;29;20178;-55
2022/07/09 02:51:05;;;;;;;7.18;4.82;;;;;;;;;;4958054;29;20219;-52
2022/07/09 02:53:31;;;;;;;7.45;4.78;;;;;;;;;;4940910;29;20730;-53
2022/07/09 02:55:57;;;;;;;9.75;4.70;;;;;;;;;;4957073;29;20237;-53
2022/07/09 02:58:23;;;;;;;8.32;4.18;;;;;;;;;;4957436;29;20206;-54
2022/07/09 03:00:50;;;;;;;7.65;4.22;;;;;;;;;;4957864;29;20179;-51
2022/07/09 03:03:16;;;;;;;5.47;4.05;;;;;;;;;;4957487;29;20183;-54
2022/07/09 03:05:42;;;;;;;6.90;3.72;;;;;;;;;;4956295;29;20270;-52
2022/07/09 03:08:09;;;;;;;7.88;3.88;;;;;;;;;;4931210;29;20195;-52
2022/07/09 03:10:35;;;;;;;10.05;4.40;;;;;;;;;;4954317;29;20198;-56
2022/07/09 03:13:01;;;;;;;7.50;4.07;;;;;;;;;;4941056;29;20190;-53
2022/07/09 03:15:28;;;;;;;6.38;4.07;;;;;;;;;;4944744;29;20377;-55
2022/07/09 03:17:54;;;;;;;6.95;4.43;;;;;;;;;;4954812;29;20201;-55
2022/07/09 03:20:20;;;;;;;6.97;4.18;;;;;;;;;;4940048;29;20222;-57
2022/07/09 03:22:46;;;;;;;10.80;4.28;;;;;;;;;;4957484;29;20209;-55
2022/07/09 03:25:12;;;;;;;10.27;4.80;;;;;;;;;;4956719;29;20186;-55
2022/07/09 03:27:38;;;;;;;6.43;4.25;;;;;;;;;;4956632;28;20183;-55
2022/07/09 03:30:05;;;;;;;9.35;4.30;;;;;;;;;;4940346;29;20537;-53
2022/07/09 03:32:31;;;;;;;9.55;4.38;;;;;;;;;;4956986;29;20243;-55
2022/07/09 03:34:57;;;;;;;8.20;4.20;;;;;;;;;;4939383;29;20632;-55
2022/07/09 03:37:23;;;;;;;5.88;3.63;;;;;;;;;;4957500;29;20262;-58
2022/07/09 03:39:49;;;;;;;6.55;3.72;;;;;;;;;;4939828;29;20265;-51
2022/07/09 03:42:15;;;;;;;5.90;3.60;;;;;;;;;;4957150;29;20183;-53
2022/07/09 03:44:41;;;;;;;7.47;3.78;;;;;;;;;;4956111;29;20250;-54
2022/07/09 03:47:08;;;;;;;5.47;4.00;;;;;;;;;;4956880;29;20225;-54
2022/07/09 03:49:34;;;;;;;7.28;4.40;;;;;;;;;;4956277;29;20190;-51
2022/07/09 03:52:00;;;;;;;7.50;4.38;;;;;;;;;;4954294;29;20194;-52
2022/07/09 03:54:27;;;;;;;6.38;4.40;;;;;;;;;;4956716;29;20190;-53
2022/07/09 03:56:53;;;;;;;5.88;4.50;;;;;;;;;;4956240;29;20254;-54
2022/07/09 03:59:19;;;;;;;7.68;4.55;;;;;;;;;;4956414;29;20678;-53
2022/07/09 04:01:45;;;;;;;8.07;4.22;;;;;;;;;;4955796;29;20190;-53
2022/07/09 04:04:13;;;;;;;7.05;4.20;;;;;;;;;;4956890;29;20227;-51
2022/07/09 04:06:39;;;;;;;5.40;4.30;;;;;;;;;;4955736;29;20196;-53
2022/07/09 04:09:05;;;;;;;6.88;4.00;;;;;;;;;;4956705;29;20214;-54
2022/07/09 04:11:32;;;;;;;7.38;4.30;;;;;;;;;;4926331;29;20261;-50
2022/07/09 04:13:59;;;;;;;8.85;4.38;;;;;;;;;;4950901;29;20640;-55
2022/07/09 04:16:25;;;;;;;9.82;4.32;;;;;;;;;;4937905;29;20183;-54
2022/07/09 04:18:51;;;;;;;6.07;4.22;;;;;;;;;;4954826;29;20741;-53
2022/07/09 04:21:17;;;;;;;6.15;4.63;;;;;;;;;;4956406;29;20238;-51
2022/07/09 04:23:43;;;;;;;5.88;4.70;;;;;;;;;;4951057;29;20179;-55
2022/07/09 04:26:09;;;;;;;6.80;4.82;;;;;;;;;;4956402;29;20237;-55
2022/07/09 04:28:37;;;;;;;8.23;4.70;;;;;;;;;;4955271;29;20267;-52
2022/07/09 04:31:03;;;;;;;8.23;5.35;;;;;;;;;;4951206;29;20187;-53
2022/07/09 04:33:29;;;;;;;9.23;5.35;;;;;;;;;;4937412;29;20255;-53
2022/07/09 04:35:55;;;;;;;6.78;5.25;;;;;;;;;;4923212;29;20936;-53
2022/07/09 04:38:21;;;;;;;11.70;5.47;;;;;;;;;;4939269;29;20194;-54
2022/07/09 04:40:48;;;;;;;9.98;5.65;;;;;;;;;;4955145;28;20229;-52
2022/07/09 04:43:14;;;;;;;11.10;6.80;;;;;;;;;;4952988;29;20186;-52
2022/07/09 04:45:40;;;;;;;9.90;6.72;;;;;;;;;;4922094;29;20704;-50
2022/07/09 04:48:06;;;;;;;8.77;6.50;;;;;;;;;;4955413;29;20182;-54
2022/07/09 04:50:32;;;;;;;9.23;6.80;;;;;;;;;;4955811;29;20245;-53
2022/07/09 04:52:59;;;;;;;10.25;7.03;;;;;;;;;;4955865;29;20182;-54
2022/07/09 04:55:25;;;;;;;10.45;7.38;;;;;;;;;;4924573;29;20190;-54
2022/07/09 04:57:51;;;;;;;9.90;7.88;;;;;;;;;;4945689;29;20187;-56
2022/07/09 05:00:17;;;;;;;11.50;7.95;;;;;;;;;;4922338;29;20217;-51
2022/07/09 05:02:44;;;;;;;15.13;8.60;;;;;;;;;;4955420;29;20285;-50
2022/07/09 05:05:11;;;;;;;12.40;8.65;;;;;;;;;;4938642;29;20677;-53
2022/07/09 05:07:37;;;;;;;12.82;8.85;;;;;;;;;;4954514;29;20189;-53
2022/07/09 05:10:04;;;;;;;15.60;9.45;;;;;;;;;;4955643;29;20210;-51
2022/07/09 05:12:30;;;;;;;17.25;10.63;;;;;;;;;;4954991;29;20205;-54
2022/07/09 05:14:57;;;;;;;21.55;12.07;;;;;;;;;;4955115;29;20280;-57
2022/07/09 05:17:23;;;;;;;20.23;12.27;;;;;;;;;;4954380;29;20179;-55
2022/07/09 05:19:50;;;;;;;18.02;13.35;;;;;;;;;;4953168;29;20268;-50
2022/07/09 05:22:16;;;;;;;21.35;13.38;;;;;;;;;;4955068;29;20183;-51
2022/07/09 05:24:42;;;;;;;17.95;12.90;;;;;;;;;;4938086;29;20533;-51
2022/07/09 05:27:09;;;;;;;22.42;13.10;;;;;;;;;;4955210;29;20183;-53
2022/07/09 05:29:38;;;;;;;19.70;11.45;;;;;;;;;;4954197;29;20199;-50
2022/07/09 05:32:05;;;;;;;19.67;11.23;;;;;;;;;;4954168;29;20190;-52
2022/07/09 05:34:31;;;;;;;17.92;10.23;;;;;;;;;;4954169;29;20262;-53
2022/07/09 05:36:58;;;;;;;12.85;9.25;;;;;;;;;;4955338;29;20266;-53
2022/07/09 05:39:24;;;;;;;11.82;8.25;;;;;;;;;;4938151;29;20218;-51
2022/07/09 05:41:50;;;;;;;14.05;8.10;;;;;;;;;;4936755;29;20194;-53
2022/07/09 05:44:16;;;;;;;15.07;7.82;;;;;;;;;;4937593;29;20205;-52
2022/07/09 05:46:43;;;;;;;13.27;7.30;;;;;;;;;;4946988;29;20191;-51
2022/07/09 05:49:09;;;;;;;15.68;7.88;;;;;;;;;;4939950;29;20254;-53
2022/07/09 05:51:36;;;;;;;11.80;6.70;;;;;;;;;;4950276;28;20186;-52
2022/07/09 05:54:03;;;;;;;10.27;6.68;;;;;;;;;;4941307;29;20655;-54
2022/07/09 05:56:29;;;;;;;10.70;7.07;;;;;;;;;;4930543;29;20287;-52
2022/07/09 05:58:55;;;;;;;17.02;7.45;;;;;;;;;;4942297;29;20344;-48
2022/07/09 06:01:21;;;;;;;9.65;6.25;;;;;;;;;;4936591;29;20187;-47
2022/07/09 06:03:48;;;;;;;10.02;6.20;;;;;;;;;;4929775;29;20270;-50
2022/07/09 06:06:14;;;;;;;13.52;7.55;;;;;;;;;;4928764;29;20238;-53
2022/07/09 06:08:40;;;;;;;12.38;6.90;;;;;;;;;;4919398;29;20659;-47
2022/07/09 06:11:06;;;;;;;12.30;7.28;;;;;;;;;;4954513;29;20210;-49
2022/07/09 06:13:32;;;;;;;12.98;6.63;;;;;;;;;;4937666;29;20237;-51
2022/07/09 06:15:59;;;;;;;13.13;6.90;;;;;;;;;;4921241;29;20241;-53
2022/07/09 06:18:25;;;;;;;12.55;6.55;;;;;;;;;;4953142;29;20199;-51
2022/07/09 06:20:51;;;;;;;13.85;6.70;;;;;;;;;;4937700;29;20213;-54
2022/07/09 06:23:17;;;;;;;15.15;6.22;;;;;;;;;;4954217;29;20665;-48
2022/07/09 06:25:43;;;;;;;10.65;6.40;;;;;;;;;;4953070;29;20178;-54
2022/07/09 06:28:10;;;;;;;8.45;5.15;;;;;;;;;;4953791;29;20206;-52
2022/07/09 06:30:36;;;;;;;10.70;5.25;;;;;;;;;;4951902;29;20195;-51
2022/07/09 06:33:02;;;;;;;7.28;4.47;;;;;;;;;;4937725;29;20596;-50
2022/07/09 06:35:29;;;;;;;10.75;4.10;;;;;;;;;;4937482;29;20185;-54
2022/07/09 06:37:55;;;;;;;7.72;3.90;;;;;;;;;;4953937;29;20175;-56
2022/07/09 06:40:21;;;;;;;6.72;3.80;;;;;;;;;;4951619;29;20210;-56
2022/07/09 06:42:47;;;;;;;4.68;3.03;;;;;;;;;;4944370;29;20245;-52
2022/07/09 06:45:19;;;;;;;6.90;3.00;;;;;;;;;;4934407;29;20241;-55
2022/07/09 06:47:45;;;;;;;6.88;2.80;;;;;;;;;;4934202;29;20190;-52
2022/07/09 06:50:12;;;;;;;5.68;2.80;;;;;;;;;;4951861;29;20194;-53
2022/07/09 06:52:38;;;;;;;5.65;2.63;;;;;;;;;;4953802;29;20717;-55
2022/07/09 06:55:04;;;;;;;6.43;2.70;;;;;;;;;;4937133;29;20575;-52
2022/07/09 06:57:30;;;;;;;3.72;2.17;;;;;;;;;;4952082;29;20257;-51
2022/07/09 06:59:57;;;;;;;4.88;2.17;;;;;;;;;;4935321;29;20207;-52
2022/07/09 07:02:23;;;;;;;5.43;1.95;;;;;;;;;;4936386;29;20191;-55
2022/07/09 07:04:49;;;;;;;7.80;3.00;;;;;;;;;;4957082;29;20214;-50
2022/07/09 07:07:16;;;;;;;8.50;2.25;;;;;;;;;;4940494;29;20191;-55
2022/07/09 07:09:42;;;;;;;8.25;2.13;;;;;;;;;;4956220;29;20194;-55
2022/07/09 07:12:08;;;;;;;8.18;3.00;;;;;;;;;;4955859;29;20187;-52
2022/07/09 07:14:34;;;;;;;8.25;2.80;;;;;;;;;;4956808;28;20227;-53
2022/07/09 07:17:00;;;;;;;10.25;2.40;;;;;;;;;;4957309;29;20188;-55
2022/07/09 07:19:27;;;;;;;6.55;2.53;;;;;;;;;;4956579;29;20210;-56
2022/07/09 07:21:53;;;;;;;5.68;2.40;;;;;;;;;;4938247;29;20245;-58
2022/07/09 07:24:19;;;;;;;6.57;2.50;;;;;;;;;;4937024;29;20281;-58
2022/07/09 07:26:45;;;;;;;6.45;2.50;;;;;;;;;;4939604;29;20249;-53
2022/07/09 07:29:11;;;;;;;6.75;2.42;;;;;;;;;;4939473;29;20191;-55
2022/07/09 07:31:38;;;;;;;7.38;2.45;;;;;;;;;;4956370;29;20187;-58
2022/07/09 07:34:04;;;;;;;7.70;2.47;;;;;;;;;;4938339;29;20675;-55
2022/07/09 07:36:30;;;;;;;7.30;2.38;;;;;;;;;;4939656;29;20186;-58
2022/07/09 07:38:56;;;;;;;7.43;2.40;;;;;;;;;;4956995;29;20266;-57
2022/07/09 07:41:23;;;;;;;9.68;2.88;;;;;;;;;;4957012;29;20179;-56
2022/07/09 07:43:49;;;;;;;8.05;2.25;;;;;;;;;;4955911;29;20191;-57
2022/07/09 07:46:15;;;;;;;9.30;2.33;;;;;;;;;;4936535;29;20206;-57
2022/07/09 07:48:41;;;;;;;15.50;2.80;;;;;;;;;;4953527;29;20523;-57
2022/07/09 07:51:08;;;;;;;9.02;2.25;;;;;;;;;;4937610;29;20262;-54
2022/07/09 07:53:35;;;;;;;11.48;3.00;;;;;;;;;;4945884;29;20186;-54
2022/07/09 07:56:01;;;;;;;10.68;2.53;;;;;;;;;;4956476;29;20198;-53
2022/07/09 07:58:27;;;;;;;6.35;2.22;;;;;;;;;;4956530;29;20186;-54
2022/07/09 08:00:53;;;;;;;7.45;2.20;;;;;;;;;;4956581;29;20688;-54
2022/07/09 08:03:20;;;;;;;6.35;2.10;;;;;;;;;;4938157;29;22142;-49
2022/07/09 08:05:46;;;;;;;10.30;2.50;;;;;;;;;;4954486;29;20190;-54
2022/07/09 08:08:12;;;;;;;9.60;2.20;;;;;;;;;;4938501;29;20191;-54
2022/07/09 08:10:38;;;;;;;9.75;1.90;;;;;;;;;;4955994;29;20557;-50
2022/07/09 08:13:05;;;;;;;7.53;1.92;;;;;;;;;;4939243;29;20183;-55
2022/07/09 08:15:31;;;;;;;7.95;1.83;;;;;;;;;;4950662;29;20226;-55
2022/07/09 08:17:57;;;;;;;7.68;2.85;;;;;;;;;;4939057;29;20555;-52
2022/07/09 08:20:23;;;;;;;11.60;2.30;;;;;;;;;;4955310;29;20210;-55
2022/07/09 08:22:50;;;;;;;8.80;1.70;;;;;;;;;;4955147;29;20198;-54
2022/07/09 08:25:16;;;;;;;11.30;2.03;;;;;;;;;;4955379;29;20550;-55
2022/07/09 08:27:42;;;;;;;5.95;1.80;;;;;;;;;;4938809;29;20555;-52
2022/07/09 08:30:09;;;;;;;7.35;1.65;;;;;;;;;;4955431;29;20194;-54
2022/07/09 08:32:37;;;;;;;7.20;1.40;;;;;;;;;;4955674;29;20182;-52
2022/07/09 08:35:03;;;;;;;4.50;1.85;;;;;;;;;;4954688;29;20222;-52
2022/07/09 08:37:29;;;;;;;5.93;1.50;;;;;;;;;;4956053;29;20210;-54
2022/07/09 08:39:55;;;;;;;7.97;1.58;;;;;;;;;;4939143;29;20268;-53
2022/07/09 08:42:22;;;;;;;5.97;1.48;;;;;;;;;;4956527;29;20647;-52
2022/07/09 08:44:48;;;;;;;5.18;1.80;;;;;;;;;;4952536;29;20186;-55
2022/07/09 08:47:17;;;;;;;6.60;1.73;;;;;;;;;;4938315;29;20182;-54
2022/07/09 08:49:44;;;;;;;5.57;1.70;;;;;;;;;;4954863;29;20190;-52
2022/07/09 08:52:10;;;;;;;4.68;1.55;;;;;;;;;;4955425;29;20277;-48
2022/07/09 08:54:37;;;;;;;5.15;1.15;;;;;;;;;;4936933;29;20710;-51
2022/07/09 08:57:04;;;;;;;6.20;1.63;;;;;;;;;;4955486;29;20187;-53
2022/07/09 08:59:31;;;;;;;5.60;1.75;;;;;;;;;;4938317;29;20210;-53
2022/07/09 09:01:57;;;;;;;2.13;1.10;;;;;;;;;;4955056;29;20190;-53
2022/07/09 09:04:24;;;;;;;4.97;1.50;;;;;;;;;;4954276;29;20191;-55
2022/07/09 09:06:50;;;;;;;5.28;1.85;;;;;;;;;;4955557;29;20178;-53
2022/07/09 09:09:20;;;;;;;5.13;1.70;;;;;;;;;;4938159;29;20551;-53
2022/07/09 09:11:50;;;;;;;4.78;1.63;;;;;;;;;;4955351;29;20179;-55
2022/07/09 09:14:21;;;;;;;2.97;1.40;;;;;;;;;;4935861;29;20230;-54
2022/07/09 09:16:47;;;;;;;9.35;1.35;;;;;;;;;;4954812;29;20416;-51
2022/07/09 09:19:14;;;;;;;3.50;1.42;;;;;;;;;;4937024;29;20214;-55
2022/07/09 09:21:40;;;;;;;3.63;1.25;;;;;;;;;;4954903;29;20209;-51
2022/07/09 09:24:07;;;;;;;4.32;1.40;;;;;;;;;;4954203;29;20187;-57
2022/07/09 09:26:35;;;;;;;6.13;1.35;;;;;;;;;;4954557;28;20270;-51
2022/07/09 09:29:02;;;;;;;3.53;1.27;;;;;;;;;;4937467;29;20670;-54
2022/07/09 09:31:29;;;;;;;3.70;1.27;;;;;;;;;;4954597;29;20237;-55
2022/07/09 09:33:56;;;;;;;4.38;1.40;;;;;;;;;;4953095;29;20245;-55
2022/07/09 09:36:41;;;;;;;4.28;1.30;;;;;;;;;;4936654;29;20194;-52
2022/07/09 09:39:18;;;;;;;11.25;1.55;;;;;;;;;;4954770;29;20305;-52
2022/07/09 09:41:46;;;;;;;8.07;1.50;;;;;;;;;;4954512;29;20650;-53
2022/07/09 09:44:14;;;;;;;11.18;1.77;;;;;;;;;;4953388;29;20190;-52
2022/07/09 09:46:41;;;;;;;9.02;1.40;;;;;;;;;;4954785;29;20256;-54
2022/07/09 09:49:08;;;;;;;5.43;1.67;;;;;;;;;;4944266;29;20241;-53
2022/07/09 09:51:39;;;;;;;6.68;1.35;;;;;;;;;;4954545;29;20190;-53
2022/07/09 09:54:05;;;;;;;6.10;1.50;;;;;;;;;;4952711;29;20190;-51
2022/07/09 09:56:33;;;;;;;5.60;1.40;;;;;;;;;;4952451;29;20197;-53
2022/07/09 09:58:59;;;;;;;6.90;1.50;;;;;;;;;;4937632;29;20190;-52
2022/07/09 10:01:26;;;;;;;7.38;1.45;;;;;;;;;;4954396;29;20178;-53
2022/07/09 10:03:53;;;;;;;11.13;1.60;;;;;;;;;;4954015;29;20668;-52
2022/07/09 10:06:19;;;;;;;5.57;1.85;;;;;;;;;;4954937;29;20270;-53
2022/07/09 10:08:46;;;;;;;3.55;1.40;;;;;;;;;;4952688;29;20199;-56
2022/07/09 10:11:12;;;;;;;9.32;1.65;;;;;;;;;;4937368;29;20690;-51
2022/07/09 10:13:38;;;;;;;8.65;1.63;;;;;;;;;;4953819;29;20183;-54
2022/07/09 10:16:04;;;;;;;3.58;1.60;;;;;;;;;;4953882;29;20230;-52
2022/07/09 10:18:31;;;;;;;5.30;1.58;;;;;;;;;;4952484;29;20195;-52
2022/07/09 10:20:57;;;;;;;8.25;1.70;;;;;;;;;;4954194;29;20225;-53
2022/07/09 10:23:24;;;;;;;4.95;1.70;;;;;;;;;;4936935;29;20191;-50
2022/07/09 10:25:52;;;;;;;8.18;1.63;;;;;;;;;;4953942;29;20186;-53
2022/07/09 10:28:19;;;;;;;8.75;1.58;;;;;;;;;;4940910;29;20191;-54
2022/07/09 10:30:46;;;;;;;6.97;1.83;;;;;;;;;;4953410;29;20639;-53
2022/07/09 10:33:13;;;;;;;7.45;1.65;;;;;;;;;;4954205;29;20447;-52
2022/07/09 10:35:43;;;;;;;9.93;1.80;;;;;;;;;;4954388;29;20233;-52
2022/07/09 10:38:10;;;;;;;3.75;1.50;;;;;;;;;;4954286;28;20190;-53
2022/07/09 10:40:41;;;;;;;10.48;1.70;;;;;;;;;;4957467;29;20246;-48
2022/07/09 10:43:07;;;;;;;10.27;2.40;;;;;;;;;;4958257;29;20191;-51
2022/07/09 10:45:37;;;;;;;6.80;1.67;;;;;;;;;;4958135;29;20186;-46
2022/07/09 10:48:04;;;;;;;4.93;1.70;;;;;;;;;;4957215;29;20201;-47
2022/07/09 10:50:31;;;;;;;4.63;1.38;;;;;;;;;;4938618;29;20278;-49
2022/07/09 10:52:59;;;;;;;4.75;1.70;;;;;;;;;;4957736;29;20190;-54
2022/07/09 10:55:29;;;;;;;4.88;1.40;;;;;;;;;;4957883;29;20197;-55
2022/07/09 10:57:55;;;;;;;6.00;1.67;;;;;;;;;;4956480;29;20323;-53
2022/07/09 11:00:29;;;;;;;5.28;1.88;;;;;;;;;;4956047;29;20206;-55
2022/07/09 11:02:56;;;;;;;6.18;1.70;;;;;;;;;;4957217;29;20189;-52
2022/07/09 11:05:23;;;;;;;6.38;1.75;;;;;;;;;;4940485;29;20191;-52
2022/07/09 11:07:59;;;;;;;7.50;1.70;;;;;;;;;;4956540;29;20195;-54
2022/07/09 11:10:27;;;;;;;6.85;1.83;;;;;;;;;;4940119;29;20563;-50
2022/07/09 11:12:53;;;;;;;7.72;1.60;;;;;;;;;;4939905;29;20561;-53
2022/07/09 11:15:20;;;;;;;10.55;2.00;;;;;;;;;;4939606;29;20591;-50
2022/07/09 11:17:56;;;;;;;11.70;2.05;;;;;;;;;;4956141;29;20277;-52
2022/07/09 11:20:22;;;;;;;4.20;1.77;;;;;;;;;;4939667;29;20222;-53
2022/07/09 11:22:49;;;;;;;6.03;1.75;;;;;;;;;;4956970;29;20183;-52
2022/07/09 11:25:15;;;;;;;6.80;1.92;;;;;;;;;;4939717;29;20185;-53
2022/07/09 11:27:42;;;;;;;6.88;2.10;;;;;;;;;;4954640;29;20186;-53
2022/07/09 11:30:12;;;;;;;4.45;1.70;;;;;;;;;;4941455;29;20235;-56
2022/07/09 11:32:38;;;;;;;7.43;2.05;;;;;;;;;;4956134;29;20189;-55
2022/07/09 11:35:05;;;;;;;7.57;2.08;;;;;;;;;;4939833;29;20218;-55
2022/07/09 11:37:31;;;;;;;10.20;2.13;;;;;;;;;;4956136;29;20190;-53
2022/07/09 11:39:57;;;;;;;7.55;2.03;;;;;;;;;;4939435;29;20226;-52
2022/07/09 11:42:23;;;;;;;8.77;2.13;;;;;;;;;;4956961;29;20188;-54
2022/07/09 11:45:02;;;;;;;5.30;1.95;;;;;;;;;;4956491;29;20667;-54
2022/07/09 11:47:35;;;;;;;5.28;1.90;;;;;;;;;;4955929;29;20182;-53
2022/07/09 11:50:06;;;;;;;9.02;2.22;;;;;;;;;;4938896;29;20195;-51
2022/07/09 11:52:32;;;;;;;5.15;1.90;;;;;;;;;;4956723;29;20197;-49
2022/07/09 11:54:59;;;;;;;8.63;2.10;;;;;;;;;;4938465;29;20531;-54
2022/07/09 11:57:25;;;;;;;7.03;2.38;;;;;;;;;;4955344;29;20183;-51
2022/07/09 11:59:52;;;;;;;7.10;2.03;;;;;;;;;;4956286;29;20313;-51
2022/07/09 12:02:25;;;;;;;7.82;2.13;;;;;;;;;;4955381;29;20197;-53
2022/07/09 12:04:51;;;;;;;6.38;2.00;;;;;;;;;;4956419;29;20673;-51
2022/07/09 12:07:17;;;;;;;10.50;2.60;;;;;;;;;;4955942;29;20208;-55
2022/07/09 12:09:43;;;;;;;12.55;2.53;;;;;;;;;;4939107;29;20628;-53
2022/07/09 12:12:09;;;;;;;11.43;2.25;;;;;;;;;;4955837;29;20190;-50
2022/07/09 12:14:36;;;;;;;11.63;2.67;;;;;;;;;;4923456;29;20235;-53
2022/07/09 12:17:02;;;;;;;8.13;2.65;;;;;;;;;;4955847;29;20199;-54
2022/07/09 12:19:28;;;;;;;9.52;2.85;;;;;;;;;;4953541;29;20245;-55
2022/07/09 12:21:54;;;;;;;8.40;2.75;;;;;;;;;;4956532;29;20179;-54
2022/07/09 12:24:21;;;;;;;12.32;2.80;;;;;;;;;;4956442;28;20639;-55
2022/07/09 12:26:47;;;;;;;10.57;2.50;;;;;;;;;;4923300;29;20183;-50
2022/07/09 12:29:13;;;;;;;11.32;3.08;;;;;;;;;;4954510;29;20651;-52
2022/07/09 12:31:39;;;;;;;8.90;2.58;;;;;;;;;;4938869;29;20229;-52
2022/07/09 12:34:05;;;;;;;13.13;3.15;;;;;;;;;;4956115;29;20647;-52
2022/07/09 12:36:32;;;;;;;11.88;2.72;;;;;;;;;;4939374;29;20199;-53
2022/07/09 12:38:58;;;;;;;10.63;2.70;;;;;;;;;;4954244;29;20551;-52
2022/07/09 12:41:24;;;;;;;11.25;2.67;;;;;;;;;;4919975;29;20205;-53
2022/07/09 12:43:50;;;;;;;9.13;2.35;;;;;;;;;;4936816;29;20262;-53
2022/07/09 12:46:16;;;;;;;9.68;2.70;;;;;;;;;;4936988;29;20275;-54
2022/07/09 12:48:43;;;;;;;13.75;2.60;;;;;;;;;;4936785;29;20191;-52
2022/07/09 12:51:09;;;;;;;11.45;2.75;;;;;;;;;;4955542;29;20179;-50
2022/07/09 12:53:35;;;;;;;11.43;2.50;;;;;;;;;;4925561;29;20702;-54
2022/07/09 12:56:01;;;;;;;14.07;2.15;;;;;;;;;;4950958;29;20182;-54
2022/07/09 12:58:27;;;;;;;10.20;2.15;;;;;;;;;;4937280;29;20187;-50
2022/07/09 13:00:53;;;;;;;8.45;1.73;;;;;;;;;;4936290;29;20261;-54
2022/07/09 13:03:20;;;;;;;9.80;2.50;;;;;;;;;;4955408;29;20187;-53
2022/07/09 13:05:46;;;;;;;12.73;2.35;;;;;;;;;;4952425;29;20199;-52
2022/07/09 13:08:12;;;;;;;9.55;2.35;;;;;;;;;;4938044;29;20237;-55
2022/07/09 13:10:38;;;;;;;10.00;1.80;;;;;;;;;;4955247;29;20194;-56
2022/07/09 13:13:04;;;;;;;11.63;2.50;;;;;;;;;;4951707;29;20651;-56
2022/07/09 13:15:30;;;;;;;6.85;1.90;;;;;;;;;;4943451;29;20257;-55
2022/07/09 13:17:57;;;;;;;7.57;1.75;;;;;;;;;;4955549;29;20643;-54
2022/07/09 13:20:23;;;;;;;10.15;1.63;;;;;;;;;;4922223;29;20211;-53
2022/07/09 13:22:49;;;;;;;7.22;1.63;;;;;;;;;;4955234;29;20216;-52
2022/07/09 13:25:15;;;;;;;6.93;1.85;;;;;;;;;;4954224;29;20195;-55
2022/07/09 13:27:42;;;;;;;10.05;1.77;;;;;;;;;;4937855;29;20273;-54
2022/07/09 13:30:08;;;;;;;8.63;1.63;;;;;;;;;;4954522;29;20242;-50
2022/07/09 13:32:34;;;;;;;4.93;1.50;;;;;;;;;;4935684;29;21415;-60
2022/07/09 13:35:00;;;;;;;5.07;1.80;;;;;;;;;;4954175;29;20194;-54
2022/07/09 13:37:27;;;;;;;10.73;2.00;;;;;;;;;;4952282;29;20187;-51
2022/07/09 13:39:53;;;;;;;7.05;1.80;;;;;;;;;;4954809;29;20214;-54
2022/07/09 13:42:19;;;;;;;4.47;1.88;;;;;;;;;;4938067;29;20707;-48
2022/07/09 13:44:45;;;;;;;11.43;3.65;;;;;;;;;;4953290;29;20254;-53
2022/07/09 13:47:11;;;;;;;9.18;2.30;;;;;;;;;;4953424;29;20634;-55
2022/07/09 13:49:38;;;;;;;8.80;2.10;;;;;;;;;;4950949;29;20190;-54
2022/07/09 13:52:05;;;;;;;7.82;1.90;;;;;;;;;;4954447;29;20207;-52
2022/07/09 13:54:31;;;;;;;5.20;1.63;;;;;;;;;;4954709;29;20186;-52
2022/07/09 13:56:58;;;;;;;7.70;1.73;;;;;;;;;;4954706;29;20207;-54
2022/07/09 13:59:24;;;;;;;8.45;1.98;;;;;;;;;;4952385;29;20233;-56
2022/07/09 14:01:50;;;;;;;14.10;2.20;;;;;;;;;;4937911;29;20191;-53
2022/07/09 14:04:16;;;;;;;7.78;2.00;;;;;;;;;;4954640;29;20194;-55
2022/07/09 14:06:42;;;;;;;7.03;1.88;;;;;;;;;;4936596;29;20194;-54
2022/07/09 14:09:08;;;;;;;6.68;1.80;;;;;;;;;;4954142;29;20211;-53
2022/07/09 14:11:34;;;;;;;11.27;1.85;;;;;;;;;;4937910;28;20187;-54
2022/07/09 14:14:00;;;;;;;8.43;1.98;;;;;;;;;;4957750;29;20186;-53
2022/07/09 14:16:27;;;;;;;6.05;1.75;;;;;;;;;;4958909;29;20221;-53
2022/07/09 14:18:54;;;;;;;10.15;4.28;;;;;;;;;;4941112;29;20205;-55
2022/07/09 14:21:20;;;;;;;7.35;1.85;;;;;;;;;;4958507;29;20257;-54
2022/07/09 14:23:48;;;;;;;4.25;1.70;;;;;;;;;;4956769;29;20702;-52
2022/07/09 14:26:17;;;;;;;5.18;1.45;;;;;;;;;;4958398;29;20238;-52
2022/07/09 14:28:43;;;;;;;6.85;1.60;;;;;;;;;;4958547;29;20179;-54
2022/07/09 14:31:09;;;;;;;6.25;2.20;;;;;;;;;;4941679;29;20294;-55
2022/07/09 14:33:35;;;;;;;6.65;2.00;;;;;;;;;;4940047;29;20588;-51